sensor_id;sensor_type;location;lat;lon;timestamp;temperature;humidity
40059;SHT31;25763;49.972;8.568;2023-08-30T00:00:40;13.61;87.09
40059;SHT31;25763;49.972;8.568;2023-08-30T00:03:05;13.74;86.98
40059;SHT31;25763;49.972;8.568;2023-08-30T00:05:31;13.81;86.79
40059;SHT31;25763;49.972;8.568;2023-08-30T00:07:57;13.85;86.67
40059;SHT31;25763;49.972;8.568;2023-08-30T00:10:22;13.93;86.52
40059;SHT31;25763;49.972;8.568;2023-08-30T00:12:48;13.98;86.36
40059;SHT31;25763;49.972;8.568;2023-08-30T00:15:13;14.05;86.25
40059;SHT31;25763;49.972;8.568;2023-08-30T00:17:39;14.08;86.12
40059;SHT31;25763;49.972;8.568;2023-08-30T00:20:05;14.13;86.02
40059;SHT31;25763;49.972;8.568;2023-08-30T00:22:35;14.14;85.89
40059;SHT31;25763;49.972;8.568;2023-08-30T00:25:01;14.20;85.83
40059;SHT31;25763;49.972;8.568;2023-08-30T00:27:26;14.23;85.73
40059;SHT31;25763;49.972;8.568;2023-08-30T00:29:52;14.24;85.71
40059;SHT31;25763;49.972;8.568;2023-08-30T00:32:17;14.26;85.64
40059;SHT31;25763;49.972;8.568;2023-08-30T00:34:42;14.31;85.57
40059;SHT31;25763;49.972;8.568;2023-08-30T00:37:08;14.31;85.49
40059;SHT31;25763;49.972;8.568;2023-08-30T00:39:34;14.33;85.41
40059;SHT31;25763;49.972;8.568;2023-08-30T00:42:02;14.34;85.33
40059;SHT31;25763;49.972;8.568;2023-08-30T00:44:31;14.38;85.29
40059;SHT31;25763;49.972;8.568;2023-08-30T00:46:57;14.40;85.29
40059;SHT31;25763;49.972;8.568;2023-08-30T00:49:23;14.41;85.25
40059;SHT31;25763;49.972;8.568;2023-08-30T00:51:49;14.40;85.17
40059;SHT31;25763;49.972;8.568;2023-08-30T00:54:14;14.40;85.14
40059;SHT31;25763;49.972;8.568;2023-08-30T00:56:41;14.44;85.10
40059;SHT31;25763;49.972;8.568;2023-08-30T00:59:06;14.47;85.05
40059;SHT31;25763;49.972;8.568;2023-08-30T01:01:32;14.48;85.00
40059;SHT31;25763;49.972;8.568;2023-08-30T01:03:57;14.47;85.00
40059;SHT31;25763;49.972;8.568;2023-08-30T01:06:23;14.51;85.04
40059;SHT31;25763;49.972;8.568;2023-08-30T01:08:48;14.51;85.04
40059;SHT31;25763;49.972;8.568;2023-08-30T01:11:33;14.52;85.15
40059;SHT31;25763;49.972;8.568;2023-08-30T01:14:09;14.52;85.18
40059;SHT31;25763;49.972;8.568;2023-08-30T01:16:37;14.54;85.11
40059;SHT31;25763;49.972;8.568;2023-08-30T01:19:36;14.57;85.11
40059;SHT31;25763;49.972;8.568;2023-08-30T01:25:12;14.45;85.18
40059;SHT31;25763;49.972;8.568;2023-08-30T01:27:39;14.42;85.12
40059;SHT31;25763;49.972;8.568;2023-08-30T01:30:07;14.34;85.39
40059;SHT31;25763;49.972;8.568;2023-08-30T01:32:35;14.33;85.60
40059;SHT31;25763;49.972;8.568;2023-08-30T01:35:03;14.34;85.56
40059;SHT31;25763;49.972;8.568;2023-08-30T01:37:30;14.26;85.87
40059;SHT31;25763;49.972;8.568;2023-08-30T01:39:56;14.33;85.79
40059;SHT31;25763;49.972;8.568;2023-08-30T01:42:24;14.40;85.67
40059;SHT31;25763;49.972;8.568;2023-08-30T01:44:51;14.47;85.65
40059;SHT31;25763;49.972;8.568;2023-08-30T01:47:20;14.48;85.60
40059;SHT31;25763;49.972;8.568;2023-08-30T01:49:46;14.50;85.52
40059;SHT31;25763;49.972;8.568;2023-08-30T01:52:12;14.52;85.45
40059;SHT31;25763;49.972;8.568;2023-08-30T01:54:39;14.57;85.44
40059;SHT31;25763;49.972;8.568;2023-08-30T01:57:06;14.62;85.42
40059;SHT31;25763;49.972;8.568;2023-08-30T01:59:31;14.62;85.38
40059;SHT31;25763;49.972;8.568;2023-08-30T02:01:56;14.67;85.38
40059;SHT31;25763;49.972;8.568;2023-08-30T02:04:22;14.68;85.31
40059;SHT31;25763;49.972;8.568;2023-08-30T02:06:57;14.67;85.27
40059;SHT31;25763;49.972;8.568;2023-08-30T02:09:48;14.67;85.32
40059;SHT31;25763;49.972;8.568;2023-08-30T02:12:16;14.62;85.68
40059;SHT31;25763;49.972;8.568;2023-08-30T02:14:47;14.64;85.83
40059;SHT31;25763;49.972;8.568;2023-08-30T02:17:15;14.68;85.71
40059;SHT31;25763;49.972;8.568;2023-08-30T02:19:44;14.71;85.74
40059;SHT31;25763;49.972;8.568;2023-08-30T02:22:10;14.51;86.14
40059;SHT31;25763;49.972;8.568;2023-08-30T02:24:35;14.40;86.44
40059;SHT31;25763;49.972;8.568;2023-08-30T02:27:01;14.37;86.65
40059;SHT31;25763;49.972;8.568;2023-08-30T02:29:26;14.34;86.92
40059;SHT31;25763;49.972;8.568;2023-08-30T02:31:52;14.34;86.96
40059;SHT31;25763;49.972;8.568;2023-08-30T02:34:17;14.45;86.85
40059;SHT31;25763;49.972;8.568;2023-08-30T02:36:42;14.55;86.59
40059;SHT31;25763;49.972;8.568;2023-08-30T02:39:08;14.59;86.41
40059;SHT31;25763;49.972;8.568;2023-08-30T02:41:33;14.64;86.33
40059;SHT31;25763;49.972;8.568;2023-08-30T02:43:59;14.64;86.24
40059;SHT31;25763;49.972;8.568;2023-08-30T02:46:24;14.69;86.13
40059;SHT31;25763;49.972;8.568;2023-08-30T02:48:50;14.68;86.16
40059;SHT31;25763;49.972;8.568;2023-08-30T02:51:15;14.72;86.20
40059;SHT31;25763;49.972;8.568;2023-08-30T02:53:42;14.76;86.14
40059;SHT31;25763;49.972;8.568;2023-08-30T02:56:07;14.76;86.12
40059;SHT31;25763;49.972;8.568;2023-08-30T02:58:32;14.76;86.05
40059;SHT31;25763;49.972;8.568;2023-08-30T03:00:58;14.77;86.03
40059;SHT31;25763;49.972;8.568;2023-08-30T03:03:23;14.79;86.03
40059;SHT31;25763;49.972;8.568;2023-08-30T03:05:48;14.75;85.99
40059;SHT31;25763;49.972;8.568;2023-08-30T03:08:14;14.77;85.91
40059;SHT31;25763;49.972;8.568;2023-08-30T03:10:39;14.77;85.91
40059;SHT31;25763;49.972;8.568;2023-08-30T03:13:05;14.77;85.91
40059;SHT31;25763;49.972;8.568;2023-08-30T03:15:31;14.76;85.88
40059;SHT31;25763;49.972;8.568;2023-08-30T03:17:59;14.64;86.43
40059;SHT31;25763;49.972;8.568;2023-08-30T03:20:25;14.64;86.32
40059;SHT31;25763;49.972;8.568;2023-08-30T03:22:50;14.47;86.60
40059;SHT31;25763;49.972;8.568;2023-08-30T03:25:15;14.41;87.01
40059;SHT31;25763;49.972;8.568;2023-08-30T03:27:43;14.38;87.03
40059;SHT31;25763;49.972;8.568;2023-08-30T03:30:09;14.37;87.17
40059;SHT31;25763;49.972;8.568;2023-08-30T03:32:36;14.45;87.02
40059;SHT31;25763;49.972;8.568;2023-08-30T03:35:03;14.42;86.97
40059;SHT31;25763;49.972;8.568;2023-08-30T03:37:28;14.34;87.09
40059;SHT31;25763;49.972;8.568;2023-08-30T03:39:54;14.34;87.24
40059;SHT31;25763;49.972;8.568;2023-08-30T03:42:19;14.38;87.07
40059;SHT31;25763;49.972;8.568;2023-08-30T03:44:45;14.41;87.01
40059;SHT31;25763;49.972;8.568;2023-08-30T03:47:10;14.37;86.98
40059;SHT31;25763;49.972;8.568;2023-08-30T03:49:36;14.42;86.86
40059;SHT31;25763;49.972;8.568;2023-08-30T03:52:02;14.50;86.79
40059;SHT31;25763;49.972;8.568;2023-08-30T03:54:27;14.51;86.72
40059;SHT31;25763;49.972;8.568;2023-08-30T03:56:53;14.52;86.76
40059;SHT31;25763;49.972;8.568;2023-08-30T03:59:18;14.58;86.70
40059;SHT31;25763;49.972;8.568;2023-08-30T04:01:44;14.58;86.59
40059;SHT31;25763;49.972;8.568;2023-08-30T04:04:10;14.61;86.52
40059;SHT31;25763;49.972;8.568;2023-08-30T04:06:35;14.61;86.45
40059;SHT31;25763;49.972;8.568;2023-08-30T04:09:00;14.65;86.40
40059;SHT31;25763;49.972;8.568;2023-08-30T04:11:26;14.65;86.37
40059;SHT31;25763;49.972;8.568;2023-08-30T04:13:51;14.65;86.39
40059;SHT31;25763;49.972;8.568;2023-08-30T04:16:17;14.68;86.42
40059;SHT31;25763;49.972;8.568;2023-08-30T04:18:43;14.72;86.39
40059;SHT31;25763;49.972;8.568;2023-08-30T04:21:08;14.71;86.42
40059;SHT31;25763;49.972;8.568;2023-08-30T04:23:34;14.76;86.38
40059;SHT31;25763;49.972;8.568;2023-08-30T04:25:59;14.73;86.46
40059;SHT31;25763;49.972;8.568;2023-08-30T04:28:25;14.69;86.71
40059;SHT31;25763;49.972;8.568;2023-08-30T04:30:53;14.64;86.79
40059;SHT31;25763;49.972;8.568;2023-08-30T04:33:19;14.62;86.80
40059;SHT31;25763;49.972;8.568;2023-08-30T04:35:50;14.62;86.96
40059;SHT31;25763;49.972;8.568;2023-08-30T04:38:15;14.62;86.94
40059;SHT31;25763;49.972;8.568;2023-08-30T04:40:41;14.62;86.98
40059;SHT31;25763;49.972;8.568;2023-08-30T04:43:06;14.65;87.06
40059;SHT31;25763;49.972;8.568;2023-08-30T04:45:34;14.67;86.95
40059;SHT31;25763;49.972;8.568;2023-08-30T04:47:59;14.68;86.98
40059;SHT31;25763;49.972;8.568;2023-08-30T04:50:25;14.71;87.03
40059;SHT31;25763;49.972;8.568;2023-08-30T04:52:50;14.76;86.92
40059;SHT31;25763;49.972;8.568;2023-08-30T04:55:15;14.79;86.84
40059;SHT31;25763;49.972;8.568;2023-08-30T04:57:41;14.85;86.76
40059;SHT31;25763;49.972;8.568;2023-08-30T05:00:11;14.87;86.69
40059;SHT31;25763;49.972;8.568;2023-08-30T05:02:36;14.92;86.61
40059;SHT31;25763;49.972;8.568;2023-08-30T05:05:02;14.94;86.57
40059;SHT31;25763;49.972;8.568;2023-08-30T05:07:28;14.99;86.56
40059;SHT31;25763;49.972;8.568;2023-08-30T05:09:53;15.00;86.51
40059;SHT31;25763;49.972;8.568;2023-08-30T05:12:18;15.06;86.43
40059;SHT31;25763;49.972;8.568;2023-08-30T05:14:44;15.08;86.42
40059;SHT31;25763;49.972;8.568;2023-08-30T05:17:09;15.12;86.37
40059;SHT31;25763;49.972;8.568;2023-08-30T05:19:35;15.14;86.36
40059;SHT31;25763;49.972;8.568;2023-08-30T05:22:00;15.20;86.34
40059;SHT31;25763;49.972;8.568;2023-08-30T05:24:25;15.22;86.31
40059;SHT31;25763;49.972;8.568;2023-08-30T05:26:52;15.24;86.26
40059;SHT31;25763;49.972;8.568;2023-08-30T05:29:17;15.30;86.16
40059;SHT31;25763;49.972;8.568;2023-08-30T05:31:43;15.34;86.14
40059;SHT31;25763;49.972;8.568;2023-08-30T05:34:09;15.38;86.13
40059;SHT31;25763;49.972;8.568;2023-08-30T05:36:35;15.45;86.04
40059;SHT31;25763;49.972;8.568;2023-08-30T05:39:00;15.46;86.02
40059;SHT31;25763;49.972;8.568;2023-08-30T05:41:26;15.55;85.85
40059;SHT31;25763;49.972;8.568;2023-08-30T05:43:51;15.55;85.74
40059;SHT31;25763;49.972;8.568;2023-08-30T05:46:17;15.58;85.63
40059;SHT31;25763;49.972;8.568;2023-08-30T05:48:42;15.62;85.60
40059;SHT31;25763;49.972;8.568;2023-08-30T05:51:08;15.65;85.63
40059;SHT31;25763;49.972;8.568;2023-08-30T05:53:33;15.71;85.51
40059;SHT31;25763;49.972;8.568;2023-08-30T05:55:59;15.71;85.45
40059;SHT31;25763;49.972;8.568;2023-08-30T05:58:24;15.76;85.37
40059;SHT31;25763;49.972;8.568;2023-08-30T06:00:50;15.83;85.35
40059;SHT31;25763;49.972;8.568;2023-08-30T06:03:15;15.87;85.31
40059;SHT31;25763;49.972;8.568;2023-08-30T06:05:41;15.98;85.20
40059;SHT31;25763;49.972;8.568;2023-08-30T06:08:08;16.07;85.06
40059;SHT31;25763;49.972;8.568;2023-08-30T06:10:34;16.07;84.86
40059;SHT31;25763;49.972;8.568;2023-08-30T06:12:59;16.18;84.72
40059;SHT31;25763;49.972;8.568;2023-08-30T06:15:24;16.18;84.57
40059;SHT31;25763;49.972;8.568;2023-08-30T06:17:50;16.24;84.48
40059;SHT31;25763;49.972;8.568;2023-08-30T06:20:15;16.21;84.41
40059;SHT31;25763;49.972;8.568;2023-08-30T06:22:41;16.35;84.37
40059;SHT31;25763;49.972;8.568;2023-08-30T06:25:08;16.43;84.28
40059;SHT31;25763;49.972;8.568;2023-08-30T06:27:36;16.47;84.18
40059;SHT31;25763;49.972;8.568;2023-08-30T06:30:02;16.52;84.03
40059;SHT31;25763;49.972;8.568;2023-08-30T06:32:28;16.56;83.85
40059;SHT31;25763;49.972;8.568;2023-08-30T06:34:54;16.59;83.77
40059;SHT31;25763;49.972;8.568;2023-08-30T06:37:19;16.73;83.75
40059;SHT31;25763;49.972;8.568;2023-08-30T06:39:44;16.83;83.65
40059;SHT31;25763;49.972;8.568;2023-08-30T06:42:10;16.84;83.26
40059;SHT31;25763;49.972;8.568;2023-08-30T06:44:35;17.01;83.13
40059;SHT31;25763;49.972;8.568;2023-08-30T06:47:00;17.05;82.90
40059;SHT31;25763;49.972;8.568;2023-08-30T06:49:26;16.95;82.79
40059;SHT31;25763;49.972;8.568;2023-08-30T06:51:51;16.91;82.88
40059;SHT31;25763;49.972;8.568;2023-08-30T06:54:17;17.08;82.94
40059;SHT31;25763;49.972;8.568;2023-08-30T06:56:56;17.06;82.75
40059;SHT31;25763;49.972;8.568;2023-08-30T06:59:22;17.05;82.74
40059;SHT31;25763;49.972;8.568;2023-08-30T07:01:47;16.99;82.72
40059;SHT31;25763;49.972;8.568;2023-08-30T07:04:12;17.20;82.86
40059;SHT31;25763;49.972;8.568;2023-08-30T07:06:38;17.49;82.64
40059;SHT31;25763;49.972;8.568;2023-08-30T07:09:03;17.44;81.52
40059;SHT31;25763;49.972;8.568;2023-08-30T07:11:31;17.60;81.59
40059;SHT31;25763;49.972;8.568;2023-08-30T07:13:56;17.68;81.27
40059;SHT31;25763;49.972;8.568;2023-08-30T07:16:22;17.63;80.91
40059;SHT31;25763;49.972;8.568;2023-08-30T07:18:47;17.60;81.12
40059;SHT31;25763;49.972;8.568;2023-08-30T07:21:12;17.61;81.15
40059;SHT31;25763;49.972;8.568;2023-08-30T07:23:38;17.61;80.97
40059;SHT31;25763;49.972;8.568;2023-08-30T07:26:04;17.51;80.98
40059;SHT31;25763;49.972;8.568;2023-08-30T07:28:29;17.40;80.83
40059;SHT31;25763;49.972;8.568;2023-08-30T07:31:02;17.43;81.07
40059;SHT31;25763;49.972;8.568;2023-08-30T07:33:27;17.58;81.19
40059;SHT31;25763;49.972;8.568;2023-08-30T07:35:53;17.78;80.82
40059;SHT31;25763;49.972;8.568;2023-08-30T07:38:19;18.02;80.57
40059;SHT31;25763;49.972;8.568;2023-08-30T07:40:44;18.14;79.85
40059;SHT31;25763;49.972;8.568;2023-08-30T07:43:09;18.09;79.29
40059;SHT31;25763;49.972;8.568;2023-08-30T07:45:35;18.20;79.23
40059;SHT31;25763;49.972;8.568;2023-08-30T07:48:00;18.17;79.04
40059;SHT31;25763;49.972;8.568;2023-08-30T07:50:25;18.41;78.94
40059;SHT31;25763;49.972;8.568;2023-08-30T07:52:50;18.44;78.13
40059;SHT31;25763;49.972;8.568;2023-08-30T07:55:16;18.41;78.25
40059;SHT31;25763;49.972;8.568;2023-08-30T07:57:41;18.10;78.20
40059;SHT31;25763;49.972;8.568;2023-08-30T08:00:07;18.06;78.47
40059;SHT31;25763;49.972;8.568;2023-08-30T08:02:33;18.13;78.60
40059;SHT31;25763;49.972;8.568;2023-08-30T08:04:58;18.33;78.15
40059;SHT31;25763;49.972;8.568;2023-08-30T08:07:24;18.55;78.01
40059;SHT31;25763;49.972;8.568;2023-08-30T08:09:49;18.83;77.60
40059;SHT31;25763;49.972;8.568;2023-08-30T08:12:14;18.89;76.53
40059;SHT31;25763;49.972;8.568;2023-08-30T08:14:40;18.94;76.58
40059;SHT31;25763;49.972;8.568;2023-08-30T08:17:05;19.28;77.17
40059;SHT31;25763;49.972;8.568;2023-08-30T08:19:31;19.56;76.23
40059;SHT31;25763;49.972;8.568;2023-08-30T08:21:56;19.72;75.65
40059;SHT31;25763;49.972;8.568;2023-08-30T08:24:21;19.53;74.60
40059;SHT31;25763;49.972;8.568;2023-08-30T08:26:47;19.66;73.82
40059;SHT31;25763;49.972;8.568;2023-08-30T08:29:12;19.84;73.15
40059;SHT31;25763;49.972;8.568;2023-08-30T08:31:39;19.98;73.82
40059;SHT31;25763;49.972;8.568;2023-08-30T08:34:09;20.03;73.50
40059;SHT31;25763;49.972;8.568;2023-08-30T08:36:35;19.80;73.38
40059;SHT31;25763;49.972;8.568;2023-08-30T08:39:01;19.56;73.58
40059;SHT31;25763;49.972;8.568;2023-08-30T08:41:34;19.61;73.97
40059;SHT31;25763;49.972;8.568;2023-08-30T08:44:00;19.53;74.13
40059;SHT31;25763;49.972;8.568;2023-08-30T08:46:28;19.63;74.19
40059;SHT31;25763;49.972;8.568;2023-08-30T08:48:55;19.65;74.02
40059;SHT31;25763;49.972;8.568;2023-08-30T08:51:22;19.56;73.57
40059;SHT31;25763;49.972;8.568;2023-08-30T08:53:49;19.48;74.14
40059;SHT31;25763;49.972;8.568;2023-08-30T08:56:15;19.35;73.34
40059;SHT31;25763;49.972;8.568;2023-08-30T08:58:42;19.45;73.62
40059;SHT31;25763;49.972;8.568;2023-08-30T09:01:09;19.46;73.13
40059;SHT31;25763;49.972;8.568;2023-08-30T09:03:34;19.27;72.70
40059;SHT31;25763;49.972;8.568;2023-08-30T09:06:01;19.31;72.58
40059;SHT31;25763;49.972;8.568;2023-08-30T09:08:27;19.48;73.14
40059;SHT31;25763;49.972;8.568;2023-08-30T09:10:53;19.53;72.90
40059;SHT31;25763;49.972;8.568;2023-08-30T09:13:18;19.69;72.68
40059;SHT31;25763;49.972;8.568;2023-08-30T09:15:46;19.73;72.04
40059;SHT31;25763;49.972;8.568;2023-08-30T09:18:18;19.76;72.43
40059;SHT31;25763;49.972;8.568;2023-08-30T09:20:44;19.91;72.70
40059;SHT31;25763;49.972;8.568;2023-08-30T09:23:22;20.05;72.25
40059;SHT31;25763;49.972;8.568;2023-08-30T09:25:54;20.20;71.84
40059;SHT31;25763;49.972;8.568;2023-08-30T09:28:20;20.26;71.12
40059;SHT31;25763;49.972;8.568;2023-08-30T09:30:52;19.93;70.43
40059;SHT31;25763;49.972;8.568;2023-08-30T09:33:21;20.05;71.00
40059;SHT31;25763;49.972;8.568;2023-08-30T09:35:47;20.29;71.39
40059;SHT31;25763;49.972;8.568;2023-08-30T09:38:17;20.53;71.07
40059;SHT31;25763;49.972;8.568;2023-08-30T09:40:43;20.71;70.14
40059;SHT31;25763;49.972;8.568;2023-08-30T09:43:14;20.91;69.83
40059;SHT31;25763;49.972;8.568;2023-08-30T09:45:43;21.02;69.96
40059;SHT31;25763;49.972;8.568;2023-08-30T09:48:08;21.05;68.86
40059;SHT31;25763;49.972;8.568;2023-08-30T09:50:35;21.22;69.03
40059;SHT31;25763;49.972;8.568;2023-08-30T09:53:09;21.24;67.61
40059;SHT31;25763;49.972;8.568;2023-08-30T09:55:36;21.33;67.68
40059;SHT31;25763;49.972;8.568;2023-08-30T09:58:02;21.67;68.20
40059;SHT31;25763;49.972;8.568;2023-08-30T10:00:30;21.47;67.27
40059;SHT31;25763;49.972;8.568;2023-08-30T10:02:58;21.45;67.63
40059;SHT31;25763;49.972;8.568;2023-08-30T10:05:23;21.26;66.72
40059;SHT31;25763;49.972;8.568;2023-08-30T10:07:49;21.22;67.50
40059;SHT31;25763;49.972;8.568;2023-08-30T10:10:16;20.99;67.10
40059;SHT31;25763;49.972;8.568;2023-08-30T10:12:42;21.01;67.74
40059;SHT31;25763;49.972;8.568;2023-08-30T10:15:11;21.38;67.40
40059;SHT31;25763;49.972;8.568;2023-08-30T10:17:38;21.60;67.03
40059;SHT31;25763;49.972;8.568;2023-08-30T10:20:07;21.46;67.03
40059;SHT31;25763;49.972;8.568;2023-08-30T10:22:35;21.64;66.61
40059;SHT31;25763;49.972;8.568;2023-08-30T10:25:06;21.84;66.14
40059;SHT31;25763;49.972;8.568;2023-08-30T10:27:34;22.01;65.13
40059;SHT31;25763;49.972;8.568;2023-08-30T10:30:02;21.87;64.48
40059;SHT31;25763;49.972;8.568;2023-08-30T10:32:29;21.84;65.12
40059;SHT31;25763;49.972;8.568;2023-08-30T10:34:54;21.81;64.12
40059;SHT31;25763;49.972;8.568;2023-08-30T10:37:25;21.79;63.87
40059;SHT31;25763;49.972;8.568;2023-08-30T10:39:51;21.71;64.45
40059;SHT31;25763;49.972;8.568;2023-08-30T10:42:22;21.82;62.97
40059;SHT31;25763;49.972;8.568;2023-08-30T10:44:52;21.87;63.96
40059;SHT31;25763;49.972;8.568;2023-08-30T10:47:27;21.91;62.53
40059;SHT31;25763;49.972;8.568;2023-08-30T10:50:00;22.04;61.35
40059;SHT31;25763;49.972;8.568;2023-08-30T10:52:30;22.20;60.46
40059;SHT31;25763;49.972;8.568;2023-08-30T10:57:35;22.15;61.36
40059;SHT31;25763;49.972;8.568;2023-08-30T11:02:39;22.92;60.67
40059;SHT31;25763;49.972;8.568;2023-08-30T11:05:08;23.03;58.53
40059;SHT31;25763;49.972;8.568;2023-08-30T11:07:34;22.82;58.98
40059;SHT31;25763;49.972;8.568;2023-08-30T11:10:00;22.56;59.01
40059;SHT31;25763;49.972;8.568;2023-08-30T11:12:25;22.51;57.62
40059;SHT31;25763;49.972;8.568;2023-08-30T11:14:54;22.33;57.99
40059;SHT31;25763;49.972;8.568;2023-08-30T11:17:19;22.06;58.59
40059;SHT31;25763;49.972;8.568;2023-08-30T11:19:45;21.95;60.46
40059;SHT31;25763;49.972;8.568;2023-08-30T11:22:14;21.73;59.06
40059;SHT31;25763;49.972;8.568;2023-08-30T11:24:42;21.53;59.31
40059;SHT31;25763;49.972;8.568;2023-08-30T11:27:07;21.22;60.35
40059;SHT31;25763;49.972;8.568;2023-08-30T11:29:33;21.01;61.95
40059;SHT31;25763;49.972;8.568;2023-08-30T11:31:58;20.84;61.57
40059;SHT31;25763;49.972;8.568;2023-08-30T11:34:24;20.70;62.84
40059;SHT31;25763;49.972;8.568;2023-08-30T11:36:50;20.40;64.82
40059;SHT31;25763;49.972;8.568;2023-08-30T11:39:16;20.38;65.42
40059;SHT31;25763;49.972;8.568;2023-08-30T11:41:43;20.26;66.09
40059;SHT31;25763;49.972;8.568;2023-08-30T11:44:08;20.33;66.05
40059;SHT31;25763;49.972;8.568;2023-08-30T11:46:34;20.35;66.40
40059;SHT31;25763;49.972;8.568;2023-08-30T11:48:59;20.52;67.00
40059;SHT31;25763;49.972;8.568;2023-08-30T11:51:25;20.43;66.53
40059;SHT31;25763;49.972;8.568;2023-08-30T11:53:52;20.40;65.15
40059;SHT31;25763;49.972;8.568;2023-08-30T11:56:17;20.35;65.90
40059;SHT31;25763;49.972;8.568;2023-08-30T11:58:44;20.38;65.32
40059;SHT31;25763;49.972;8.568;2023-08-30T12:01:09;20.38;64.39
40059;SHT31;25763;49.972;8.568;2023-08-30T12:03:35;20.38;64.70
40059;SHT31;25763;49.972;8.568;2023-08-30T12:06:01;20.38;63.58
40059;SHT31;25763;49.972;8.568;2023-08-30T12:08:31;20.52;64.02
40059;SHT31;25763;49.972;8.568;2023-08-30T12:10:57;20.60;63.83
40059;SHT31;25763;49.972;8.568;2023-08-30T12:13:26;20.80;63.67
40059;SHT31;25763;49.972;8.568;2023-08-30T12:15:53;21.12;62.85
40059;SHT31;25763;49.972;8.568;2023-08-30T12:18:22;21.63;62.87
40059;SHT31;25763;49.972;8.568;2023-08-30T12:21:00;22.02;61.32
40059;SHT31;25763;49.972;8.568;2023-08-30T12:23:27;22.02;61.14
40059;SHT31;25763;49.972;8.568;2023-08-30T12:26:02;22.12;58.98
40059;SHT31;25763;49.972;8.568;2023-08-30T12:28:29;22.20;58.71
40059;SHT31;25763;49.972;8.568;2023-08-30T12:30:55;22.15;57.28
40059;SHT31;25763;49.972;8.568;2023-08-30T12:33:21;22.20;58.59
40059;SHT31;25763;49.972;8.568;2023-08-30T12:35:47;22.44;57.96
40059;SHT31;25763;49.972;8.568;2023-08-30T12:38:12;22.69;57.84
40059;SHT31;25763;49.972;8.568;2023-08-30T12:40:46;23.04;54.90
40059;SHT31;25763;49.972;8.568;2023-08-30T12:43:12;22.96;51.86
40059;SHT31;25763;49.972;8.568;2023-08-30T12:45:42;22.69;51.55
40059;SHT31;25763;49.972;8.568;2023-08-30T12:48:08;22.47;51.50
40059;SHT31;25763;49.972;8.568;2023-08-30T12:50:37;22.75;51.78
40059;SHT31;25763;49.972;8.568;2023-08-30T12:53:04;22.58;49.85
40059;SHT31;25763;49.972;8.568;2023-08-30T12:55:30;22.69;51.65
40059;SHT31;25763;49.972;8.568;2023-08-30T12:57:56;22.72;50.29
40059;SHT31;25763;49.972;8.568;2023-08-30T13:00:21;22.86;51.06
40059;SHT31;25763;49.972;8.568;2023-08-30T13:02:47;22.92;50.51
40059;SHT31;25763;49.972;8.568;2023-08-30T13:05:12;22.93;50.41
40059;SHT31;25763;49.972;8.568;2023-08-30T13:07:38;23.15;51.40
40059;SHT31;25763;49.972;8.568;2023-08-30T13:10:05;23.07;50.98
40059;SHT31;25763;49.972;8.568;2023-08-30T13:12:31;23.10;49.48
40059;SHT31;25763;49.972;8.568;2023-08-30T13:14:56;23.33;49.85
40059;SHT31;25763;49.972;8.568;2023-08-30T13:17:21;23.34;49.64
40059;SHT31;25763;49.972;8.568;2023-08-30T13:19:47;23.09;48.57
40059;SHT31;25763;49.972;8.568;2023-08-30T13:22:12;23.15;49.16
40059;SHT31;25763;49.972;8.568;2023-08-30T13:24:38;23.23;48.81
40059;SHT31;25763;49.972;8.568;2023-08-30T13:27:04;23.31;48.39
40059;SHT31;25763;49.972;8.568;2023-08-30T13:29:29;23.38;49.32
40059;SHT31;25763;49.972;8.568;2023-08-30T13:31:55;23.26;49.56
40059;SHT31;25763;49.972;8.568;2023-08-30T13:34:20;23.37;49.35
40059;SHT31;25763;49.972;8.568;2023-08-30T13:36:45;23.33;49.27
40059;SHT31;25763;49.972;8.568;2023-08-30T13:39:11;23.41;48.66
40059;SHT31;25763;49.972;8.568;2023-08-30T13:41:36;23.57;48.86
40059;SHT31;25763;49.972;8.568;2023-08-30T13:44:02;23.57;47.77
40059;SHT31;25763;49.972;8.568;2023-08-30T13:46:30;23.45;49.06
40059;SHT31;25763;49.972;8.568;2023-08-30T13:48:56;23.40;50.23
40059;SHT31;25763;49.972;8.568;2023-08-30T13:51:23;23.19;49.49
40059;SHT31;25763;49.972;8.568;2023-08-30T13:53:48;23.35;48.79
40059;SHT31;25763;49.972;8.568;2023-08-30T13:56:14;23.51;48.81
40059;SHT31;25763;49.972;8.568;2023-08-30T13:58:39;23.61;49.01
40059;SHT31;25763;49.972;8.568;2023-08-30T14:01:04;23.30;48.32
40059;SHT31;25763;49.972;8.568;2023-08-30T14:03:30;22.88;51.25
40059;SHT31;25763;49.972;8.568;2023-08-30T14:05:56;22.57;51.81
40059;SHT31;25763;49.972;8.568;2023-08-30T14:08:21;22.64;51.05
40059;SHT31;25763;49.972;8.568;2023-08-30T14:10:47;22.58;51.23
40059;SHT31;25763;49.972;8.568;2023-08-30T14:13:13;22.47;52.59
40059;SHT31;25763;49.972;8.568;2023-08-30T14:15:38;22.32;52.34
40059;SHT31;25763;49.972;8.568;2023-08-30T14:18:04;22.32;51.75
40059;SHT31;25763;49.972;8.568;2023-08-30T14:20:29;22.34;52.81
40059;SHT31;25763;49.972;8.568;2023-08-30T14:22:55;22.37;52.28
40059;SHT31;25763;49.972;8.568;2023-08-30T14:25:20;22.65;51.67
40059;SHT31;25763;49.972;8.568;2023-08-30T14:27:46;22.60;52.31
40059;SHT31;25763;49.972;8.568;2023-08-30T14:30:12;22.49;52.39
40059;SHT31;25763;49.972;8.568;2023-08-30T14:32:37;22.34;52.14
40059;SHT31;25763;49.972;8.568;2023-08-30T14:35:03;21.94;53.52
40059;SHT31;25763;49.972;8.568;2023-08-30T14:37:28;21.94;53.40
40059;SHT31;25763;49.972;8.568;2023-08-30T14:39:54;21.79;54.62
40059;SHT31;25763;49.972;8.568;2023-08-30T14:42:20;21.77;53.73
40059;SHT31;25763;49.972;8.568;2023-08-30T14:44:49;21.87;55.63
40059;SHT31;25763;49.972;8.568;2023-08-30T14:47:16;21.81;55.00
40059;SHT31;25763;49.972;8.568;2023-08-30T14:49:42;21.88;55.52
40059;SHT31;25763;49.972;8.568;2023-08-30T14:52:07;21.87;55.66
40059;SHT31;25763;49.972;8.568;2023-08-30T14:54:32;21.95;55.86
40059;SHT31;25763;49.972;8.568;2023-08-30T14:56:58;21.97;55.57
40059;SHT31;25763;49.972;8.568;2023-08-30T14:59:23;22.06;56.39
40059;SHT31;25763;49.972;8.568;2023-08-30T15:01:49;22.05;55.12
40059;SHT31;25763;49.972;8.568;2023-08-30T15:04:14;22.05;54.87
40059;SHT31;25763;49.972;8.568;2023-08-30T15:06:39;21.99;55.39
40059;SHT31;25763;49.972;8.568;2023-08-30T15:09:05;21.98;57.35
40059;SHT31;25763;49.972;8.568;2023-08-30T15:11:30;21.98;59.31
40059;SHT31;25763;49.972;8.568;2023-08-30T15:13:56;22.13;59.31
40059;SHT31;25763;49.972;8.568;2023-08-30T15:16:22;22.05;59.15
40059;SHT31;25763;49.972;8.568;2023-08-30T15:18:47;21.97;58.17
40059;SHT31;25763;49.972;8.568;2023-08-30T15:21:13;21.79;57.26
40059;SHT31;25763;49.972;8.568;2023-08-30T15:23:38;21.74;57.73
40059;SHT31;25763;49.972;8.568;2023-08-30T15:26:04;21.70;56.94
40059;SHT31;25763;49.972;8.568;2023-08-30T15:28:31;21.58;58.21
40059;SHT31;25763;49.972;8.568;2023-08-30T15:30:56;21.61;57.82
40059;SHT31;25763;49.972;8.568;2023-08-30T15:33:22;21.68;57.63